sensor_id;sensor_type;location;lat;lon;timestamp;temperature;humidity
52543;DHT22;38449;52.696;6.186;2023-05-07T00:00:48;14.80;99.90
52543;DHT22;38449;52.696;6.186;2023-05-07T00:03:14;14.90;99.90
52543;DHT22;38449;52.696;6.186;2023-05-07T00:05:40;14.80;99.90
52543;DHT22;38449;52.696;6.186;2023-05-07T00:08:07;14.80;99.90
52543;DHT22;38449;52.696;6.186;2023-05-07T00:10:33;14.90;99.90
52543;DHT22;38449;52.696;6.186;2023-05-07T00:13:00;14.80;99.90
52543;DHT22;38449;52.696;6.186;2023-05-07T00:15:26;14.90;99.90
52543;DHT22;38449;52.696;6.186;2023-05-07T00:17:53;14.90;99.90
52543;DHT22;38449;52.696;6.186;2023-05-07T00:20:19;14.80;99.90
52543;DHT22;38449;52.696;6.186;2023-05-07T00:22:45;14.80;99.90
52543;DHT22;38449;52.696;6.186;2023-05-07T00:25:12;14.80;99.90
52543;DHT22;38449;52.696;6.186;2023-05-07T00:27:38;14.80;99.90
52543;DHT22;38449;52.696;6.186;2023-05-07T00:30:05;14.80;99.90
52543;DHT22;38449;52.696;6.186;2023-05-07T00:32:32;14.80;99.90
52543;DHT22;38449;52.696;6.186;2023-05-07T00:34:58;14.90;99.90
52543;DHT22;38449;52.696;6.186;2023-05-07T00:37:24;14.80;99.90
52543;DHT22;38449;52.696;6.186;2023-05-07T00:39:51;14.80;99.90
52543;DHT22;38449;52.696;6.186;2023-05-07T00:42:17;14.70;99.90
52543;DHT22;38449;52.696;6.186;2023-05-07T00:44:44;14.80;99.90
52543;DHT22;38449;52.696;6.186;2023-05-07T00:47:10;14.70;99.90
52543;DHT22;38449;52.696;6.186;2023-05-07T00:49:44;14.80;99.90
52543;DHT22;38449;52.696;6.186;2023-05-07T00:52:16;14.60;99.90
52543;DHT22;38449;52.696;6.186;2023-05-07T00:54:42;14.80;99.90
52543;DHT22;38449;52.696;6.186;2023-05-07T00:57:11;14.70;99.90
52543;DHT22;38449;52.696;6.186;2023-05-07T00:59:38;14.70;99.90
52543;DHT22;38449;52.696;6.186;2023-05-07T01:02:05;14.60;99.90
52543;DHT22;38449;52.696;6.186;2023-05-07T01:04:32;14.70;99.90
52543;DHT22;38449;52.696;6.186;2023-05-07T01:06:59;14.60;99.90
52543;DHT22;38449;52.696;6.186;2023-05-07T01:09:27;14.60;99.90
52543;DHT22;38449;52.696;6.186;2023-05-07T01:11:55;14.70;99.90
52543;DHT22;38449;52.696;6.186;2023-05-07T01:14:23;14.50;99.90
52543;DHT22;38449;52.696;6.186;2023-05-07T01:16:50;14.60;99.90
52543;DHT22;38449;52.696;6.186;2023-05-07T01:19:18;14.60;99.90
52543;DHT22;38449;52.696;6.186;2023-05-07T01:21:47;14.60;99.90
52543;DHT22;38449;52.696;6.186;2023-05-07T01:24:14;14.50;99.90
52543;DHT22;38449;52.696;6.186;2023-05-07T01:26:43;14.50;99.90
52543;DHT22;38449;52.696;6.186;2023-05-07T01:29:09;14.60;99.90
52543;DHT22;38449;52.696;6.186;2023-05-07T01:31:36;14.40;99.90
52543;DHT22;38449;52.696;6.186;2023-05-07T01:34:03;14.40;99.90
52543;DHT22;38449;52.696;6.186;2023-05-07T01:36:31;14.30;99.90
52543;DHT22;38449;52.696;6.186;2023-05-07T01:38:59;14.30;99.90
52543;DHT22;38449;52.696;6.186;2023-05-07T01:41:25;14.30;99.90
52543;DHT22;38449;52.696;6.186;2023-05-07T01:43:52;14.50;99.90
52543;DHT22;38449;52.696;6.186;2023-05-07T01:46:19;14.30;99.90
52543;DHT22;38449;52.696;6.186;2023-05-07T01:48:46;14.30;99.90
52543;DHT22;38449;52.696;6.186;2023-05-07T01:51:12;14.40;99.90
52543;DHT22;38449;52.696;6.186;2023-05-07T01:53:39;14.30;99.90
52543;DHT22;38449;52.696;6.186;2023-05-07T01:56:07;14.30;99.90
52543;DHT22;38449;52.696;6.186;2023-05-07T01:58:33;14.20;99.90
52543;DHT22;38449;52.696;6.186;2023-05-07T02:01:00;14.30;99.90
52543;DHT22;38449;52.696;6.186;2023-05-07T02:03:26;14.30;99.90
52543;DHT22;38449;52.696;6.186;2023-05-07T02:05:52;14.30;99.90
52543;DHT22;38449;52.696;6.186;2023-05-07T02:08:18;14.20;99.90
52543;DHT22;38449;52.696;6.186;2023-05-07T02:10:45;14.20;99.90
52543;DHT22;38449;52.696;6.186;2023-05-07T02:13:11;14.20;99.90
52543;DHT22;38449;52.696;6.186;2023-05-07T02:15:37;14.10;99.90
52543;DHT22;38449;52.696;6.186;2023-05-07T02:18:07;14.10;99.90
52543;DHT22;38449;52.696;6.186;2023-05-07T02:20:33;14.10;99.90
52543;DHT22;38449;52.696;6.186;2023-05-07T02:23:00;14.10;99.90
52543;DHT22;38449;52.696;6.186;2023-05-07T02:25:26;14.00;99.90
52543;DHT22;38449;52.696;6.186;2023-05-07T02:27:52;14.00;99.90
52543;DHT22;38449;52.696;6.186;2023-05-07T02:30:19;14.00;99.90
52543;DHT22;38449;52.696;6.186;2023-05-07T02:32:47;13.90;99.90
52543;DHT22;38449;52.696;6.186;2023-05-07T02:35:13;14.00;99.90
52543;DHT22;38449;52.696;6.186;2023-05-07T02:37:39;13.80;99.90
52543;DHT22;38449;52.696;6.186;2023-05-07T02:40:06;13.80;99.90
52543;DHT22;38449;52.696;6.186;2023-05-07T02:42:32;13.80;99.90
52543;DHT22;38449;52.696;6.186;2023-05-07T02:44:59;13.80;99.90
52543;DHT22;38449;52.696;6.186;2023-05-07T02:47:25;13.80;99.90
52543;DHT22;38449;52.696;6.186;2023-05-07T02:49:55;13.80;99.90
52543;DHT22;38449;52.696;6.186;2023-05-07T02:52:21;13.60;99.90
52543;DHT22;38449;52.696;6.186;2023-05-07T02:54:48;13.70;99.90
52543;DHT22;38449;52.696;6.186;2023-05-07T02:57:14;13.60;99.90
52543;DHT22;38449;52.696;6.186;2023-05-07T02:59:41;13.60;99.90
52543;DHT22;38449;52.696;6.186;2023-05-07T03:02:08;13.50;99.90
52543;DHT22;38449;52.696;6.186;2023-05-07T03:04:34;13.40;99.90
52543;DHT22;38449;52.696;6.186;2023-05-07T03:07:00;13.40;99.90
52543;DHT22;38449;52.696;6.186;2023-05-07T03:09:26;13.40;99.90
52543;DHT22;38449;52.696;6.186;2023-05-07T03:11:52;13.30;99.90
52543;DHT22;38449;52.696;6.186;2023-05-07T03:14:19;13.40;99.90
52543;DHT22;38449;52.696;6.186;2023-05-07T03:16:45;13.30;99.90
52543;DHT22;38449;52.696;6.186;2023-05-07T03:19:11;13.30;99.90
52543;DHT22;38449;52.696;6.186;2023-05-07T03:21:37;13.30;99.90
52543;DHT22;38449;52.696;6.186;2023-05-07T03:24:04;13.20;99.90
52543;DHT22;38449;52.696;6.186;2023-05-07T03:26:30;13.20;99.90
52543;DHT22;38449;52.696;6.186;2023-05-07T03:28:57;13.10;99.90
52543;DHT22;38449;52.696;6.186;2023-05-07T03:31:23;13.10;99.90
52543;DHT22;38449;52.696;6.186;2023-05-07T03:33:54;13.00;99.90
52543;DHT22;38449;52.696;6.186;2023-05-07T03:36:21;13.10;99.90
52543;DHT22;38449;52.696;6.186;2023-05-07T03:38:48;13.10;99.90
52543;DHT22;38449;52.696;6.186;2023-05-07T03:41:14;13.00;99.90
52543;DHT22;38449;52.696;6.186;2023-05-07T03:43:40;13.00;99.90
52543;DHT22;38449;52.696;6.186;2023-05-07T03:46:07;12.90;99.90
52543;DHT22;38449;52.696;6.186;2023-05-07T03:48:33;13.00;99.90
52543;DHT22;38449;52.696;6.186;2023-05-07T03:50:59;12.80;99.90
52543;DHT22;38449;52.696;6.186;2023-05-07T03:53:25;12.90;99.90
52543;DHT22;38449;52.696;6.186;2023-05-07T03:55:52;12.90;99.90
52543;DHT22;38449;52.696;6.186;2023-05-07T03:58:18;12.80;99.90
52543;DHT22;38449;52.696;6.186;2023-05-07T04:00:45;12.70;99.90
52543;DHT22;38449;52.696;6.186;2023-05-07T04:03:11;12.70;99.90
52543;DHT22;38449;52.696;6.186;2023-05-07T04:05:37;12.80;99.90
52543;DHT22;38449;52.696;6.186;2023-05-07T04:08:04;12.70;99.90
52543;DHT22;38449;52.696;6.186;2023-05-07T04:10:31;12.70;99.90
52543;DHT22;38449;52.696;6.186;2023-05-07T04:12:57;12.60;99.90
52543;DHT22;38449;52.696;6.186;2023-05-07T04:15:24;12.60;99.90
52543;DHT22;38449;52.696;6.186;2023-05-07T04:17:50;12.60;99.90
52543;DHT22;38449;52.696;6.186;2023-05-07T04:20:17;12.60;99.90
52543;DHT22;38449;52.696;6.186;2023-05-07T04:22:43;12.50;99.90
52543;DHT22;38449;52.696;6.186;2023-05-07T04:25:09;12.50;99.90
52543;DHT22;38449;52.696;6.186;2023-05-07T04:27:36;12.60;99.90
52543;DHT22;38449;52.696;6.186;2023-05-07T04:30:04;12.50;99.90
52543;DHT22;38449;52.696;6.186;2023-05-07T04:32:30;12.50;99.90
52543;DHT22;38449;52.696;6.186;2023-05-07T04:34:56;12.50;99.90
52543;DHT22;38449;52.696;6.186;2023-05-07T04:37:23;12.40;99.90
52543;DHT22;38449;52.696;6.186;2023-05-07T04:39:49;12.50;99.90
52543;DHT22;38449;52.696;6.186;2023-05-07T04:42:16;12.40;99.90
52543;DHT22;38449;52.696;6.186;2023-05-07T04:44:44;12.40;99.90
52543;DHT22;38449;52.696;6.186;2023-05-07T04:47:11;12.50;99.90
52543;DHT22;38449;52.696;6.186;2023-05-07T04:49:38;12.50;99.90
52543;DHT22;38449;52.696;6.186;2023-05-07T04:52:04;12.40;99.90
52543;DHT22;38449;52.696;6.186;2023-05-07T04:54:31;12.40;99.90
52543;DHT22;38449;52.696;6.186;2023-05-07T04:56:57;12.40;99.90
52543;DHT22;38449;52.696;6.186;2023-05-07T04:59:24;12.40;99.90
52543;DHT22;38449;52.696;6.186;2023-05-07T05:01:50;12.30;99.90
52543;DHT22;38449;52.696;6.186;2023-05-07T05:04:16;12.40;99.90
52543;DHT22;38449;52.696;6.186;2023-05-07T05:06:42;12.40;99.90
52543;DHT22;38449;52.696;6.186;2023-05-07T05:09:09;12.40;99.90
52543;DHT22;38449;52.696;6.186;2023-05-07T05:11:35;12.40;99.90
52543;DHT22;38449;52.696;6.186;2023-05-07T05:14:02;12.50;99.90
52543;DHT22;38449;52.696;6.186;2023-05-07T05:16:28;12.40;99.90
52543;DHT22;38449;52.696;6.186;2023-05-07T05:18:54;12.50;99.90
52543;DHT22;38449;52.696;6.186;2023-05-07T05:21:21;12.40;99.90
52543;DHT22;38449;52.696;6.186;2023-05-07T05:23:47;12.40;99.90
52543;DHT22;38449;52.696;6.186;2023-05-07T05:26:13;12.50;99.90
52543;DHT22;38449;52.696;6.186;2023-05-07T05:28:39;12.50;99.90
52543;DHT22;38449;52.696;6.186;2023-05-07T05:31:06;12.50;99.90
52543;DHT22;38449;52.696;6.186;2023-05-07T05:33:32;12.50;99.90
52543;DHT22;38449;52.696;6.186;2023-05-07T05:35:58;12.50;99.90
52543;DHT22;38449;52.696;6.186;2023-05-07T05:38:25;12.50;99.90
52543;DHT22;38449;52.696;6.186;2023-05-07T05:40:51;12.60;99.90
52543;DHT22;38449;52.696;6.186;2023-05-07T05:43:18;12.50;99.90
52543;DHT22;38449;52.696;6.186;2023-05-07T05:45:44;12.70;99.90
52543;DHT22;38449;52.696;6.186;2023-05-07T05:48:10;12.60;99.90
52543;DHT22;38449;52.696;6.186;2023-05-07T05:50:37;12.70;99.90
52543;DHT22;38449;52.696;6.186;2023-05-07T05:53:03;12.70;99.90
52543;DHT22;38449;52.696;6.186;2023-05-07T05:55:30;12.80;99.90
52543;DHT22;38449;52.696;6.186;2023-05-07T05:58:00;12.80;99.90
52543;DHT22;38449;52.696;6.186;2023-05-07T06:00:27;12.80;99.90
52543;DHT22;38449;52.696;6.186;2023-05-07T06:02:53;12.70;99.90
52543;DHT22;38449;52.696;6.186;2023-05-07T06:05:19;12.80;99.90
52543;DHT22;38449;52.696;6.186;2023-05-07T06:07:46;12.80;99.90
52543;DHT22;38449;52.696;6.186;2023-05-07T06:10:12;12.70;99.90
52543;DHT22;38449;52.696;6.186;2023-05-07T06:12:39;12.70;99.90
52543;DHT22;38449;52.696;6.186;2023-05-07T06:15:06;12.70;99.90
52543;DHT22;38449;52.696;6.186;2023-05-07T06:17:32;12.80;99.90
52543;DHT22;38449;52.696;6.186;2023-05-07T06:19:58;12.70;99.90
52543;DHT22;38449;52.696;6.186;2023-05-07T06:22:25;12.80;99.90
52543;DHT22;38449;52.696;6.186;2023-05-07T06:24:51;12.80;99.90
52543;DHT22;38449;52.696;6.186;2023-05-07T06:27:17;12.90;99.90
52543;DHT22;38449;52.696;6.186;2023-05-07T06:29:44;12.80;99.90
52543;DHT22;38449;52.696;6.186;2023-05-07T06:32:11;13.00;99.90
52543;DHT22;38449;52.696;6.186;2023-05-07T06:34:39;13.10;99.90
52543;DHT22;38449;52.696;6.186;2023-05-07T06:37:06;13.20;99.90
52543;DHT22;38449;52.696;6.186;2023-05-07T06:39:32;13.60;99.90
52543;DHT22;38449;52.696;6.186;2023-05-07T06:42:00;14.00;99.90
52543;DHT22;38449;52.696;6.186;2023-05-07T06:44:27;14.10;99.90
52543;DHT22;38449;52.696;6.186;2023-05-07T06:46:54;14.00;99.90
52543;DHT22;38449;52.696;6.186;2023-05-07T06:49:20;14.10;99.90
52543;DHT22;38449;52.696;6.186;2023-05-07T06:51:46;14.30;99.90
52543;DHT22;38449;52.696;6.186;2023-05-07T06:54:12;14.40;99.90
52543;DHT22;38449;52.696;6.186;2023-05-07T06:56:39;14.40;99.90
52543;DHT22;38449;52.696;6.186;2023-05-07T06:59:06;14.70;99.90
52543;DHT22;38449;52.696;6.186;2023-05-07T07:01:32;14.70;99.90
52543;DHT22;38449;52.696;6.186;2023-05-07T07:03:58;14.80;99.90
52543;DHT22;38449;52.696;6.186;2023-05-07T07:06:25;15.00;99.90
52543;DHT22;38449;52.696;6.186;2023-05-07T07:08:51;15.30;99.90
52543;DHT22;38449;52.696;6.186;2023-05-07T07:11:17;15.60;99.90
52543;DHT22;38449;52.696;6.186;2023-05-07T07:13:44;15.70;99.90
52543;DHT22;38449;52.696;6.186;2023-05-07T07:16:10;15.70;99.90
52543;DHT22;38449;52.696;6.186;2023-05-07T07:18:36;15.80;99.90
52543;DHT22;38449;52.696;6.186;2023-05-07T07:21:03;15.70;99.90
52543;DHT22;38449;52.696;6.186;2023-05-07T07:23:29;15.60;99.90
52543;DHT22;38449;52.696;6.186;2023-05-07T07:25:56;15.80;99.90
52543;DHT22;38449;52.696;6.186;2023-05-07T07:28:22;15.90;99.90
52543;DHT22;38449;52.696;6.186;2023-05-07T07:30:48;15.90;99.90
52543;DHT22;38449;52.696;6.186;2023-05-07T07:33:14;15.70;99.90
52543;DHT22;38449;52.696;6.186;2023-05-07T07:35:41;15.80;99.90
52543;DHT22;38449;52.696;6.186;2023-05-07T07:38:07;15.70;99.90
52543;DHT22;38449;52.696;6.186;2023-05-07T07:40:36;15.60;99.90
52543;DHT22;38449;52.696;6.186;2023-05-07T07:43:03;15.50;99.90
52543;DHT22;38449;52.696;6.186;2023-05-07T07:45:29;15.60;99.90
52543;DHT22;38449;52.696;6.186;2023-05-07T07:47:55;15.50;99.90
52543;DHT22;38449;52.696;6.186;2023-05-07T07:50:21;15.60;99.90
52543;DHT22;38449;52.696;6.186;2023-05-07T07:52:48;15.60;99.90
52543;DHT22;38449;52.696;6.186;2023-05-07T07:55:14;15.60;99.90
52543;DHT22;38449;52.696;6.186;2023-05-07T07:57:46;15.60;99.90
52543;DHT22;38449;52.696;6.186;2023-05-07T08:00:13;15.70;99.90
52543;DHT22;38449;52.696;6.186;2023-05-07T08:02:40;15.90;99.90
52543;DHT22;38449;52.696;6.186;2023-05-07T08:05:06;16.10;99.90
52543;DHT22;38449;52.696;6.186;2023-05-07T08:07:32;16.20;99.90
52543;DHT22;38449;52.696;6.186;2023-05-07T08:09:59;16.20;99.90
52543;DHT22;38449;52.696;6.186;2023-05-07T08:12:25;16.10;99.90
52543;DHT22;38449;52.696;6.186;2023-05-07T08:14:51;16.20;99.90
52543;DHT22;38449;52.696;6.186;2023-05-07T08:17:18;16.30;99.90
52543;DHT22;38449;52.696;6.186;2023-05-07T08:19:44;16.30;99.90
52543;DHT22;38449;52.696;6.186;2023-05-07T08:22:10;16.40;99.90
52543;DHT22;38449;52.696;6.186;2023-05-07T08:24:37;16.60;99.90
52543;DHT22;38449;52.696;6.186;2023-05-07T08:27:03;16.60;99.90
52543;DHT22;38449;52.696;6.186;2023-05-07T08:29:29;16.70;99.90
52543;DHT22;38449;52.696;6.186;2023-05-07T08:31:55;16.90;99.90
52543;DHT22;38449;52.696;6.186;2023-05-07T08:34:22;17.10;99.90
52543;DHT22;38449;52.696;6.186;2023-05-07T08:36:48;17.10;99.90
52543;DHT22;38449;52.696;6.186;2023-05-07T08:39:18;17.20;99.90
52543;DHT22;38449;52.696;6.186;2023-05-07T08:41:45;17.00;99.90
52543;DHT22;38449;52.696;6.186;2023-05-07T08:44:14;17.00;99.90
52543;DHT22;38449;52.696;6.186;2023-05-07T08:46:41;17.10;99.90
52543;DHT22;38449;52.696;6.186;2023-05-07T08:49:08;17.40;99.90
52543;DHT22;38449;52.696;6.186;2023-05-07T08:51:35;17.50;99.90
52543;DHT22;38449;52.696;6.186;2023-05-07T08:54:01;17.80;99.90
52543;DHT22;38449;52.696;6.186;2023-05-07T08:56:28;17.90;99.90
52543;DHT22;38449;52.696;6.186;2023-05-07T08:58:54;18.10;99.90
52543;DHT22;38449;52.696;6.186;2023-05-07T09:01:24;18.40;99.90
52543;DHT22;38449;52.696;6.186;2023-05-07T09:03:52;18.20;99.90
52543;DHT22;38449;52.696;6.186;2023-05-07T09:06:19;18.30;99.90
52543;DHT22;38449;52.696;6.186;2023-05-07T09:08:53;18.40;99.90
52543;DHT22;38449;52.696;6.186;2023-05-07T09:11:21;18.70;99.90
52543;DHT22;38449;52.696;6.186;2023-05-07T09:13:53;18.80;99.90
52543;DHT22;38449;52.696;6.186;2023-05-07T09:16:20;18.60;99.90
52543;DHT22;38449;52.696;6.186;2023-05-07T09:18:51;18.70;99.90
52543;DHT22;38449;52.696;6.186;2023-05-07T09:21:18;18.60;99.90
52543;DHT22;38449;52.696;6.186;2023-05-07T09:23:45;18.60;99.90
52543;DHT22;38449;52.696;6.186;2023-05-07T09:26:11;18.50;99.90
52543;DHT22;38449;52.696;6.186;2023-05-07T09:28:39;18.40;99.90
52543;DHT22;38449;52.696;6.186;2023-05-07T09:31:07;18.30;99.90
52543;DHT22;38449;52.696;6.186;2023-05-07T09:33:34;18.40;99.90
52543;DHT22;38449;52.696;6.186;2023-05-07T09:36:05;18.30;99.90
52543;DHT22;38449;52.696;6.186;2023-05-07T09:38:33;18.40;99.90
52543;DHT22;38449;52.696;6.186;2023-05-07T09:41:07;18.40;99.90
52543;DHT22;38449;52.696;6.186;2023-05-07T09:43:35;18.70;99.90
52543;DHT22;38449;52.696;6.186;2023-05-07T09:46:11;19.00;99.90
52543;DHT22;38449;52.696;6.186;2023-05-07T09:48:40;19.10;99.90
52543;DHT22;38449;52.696;6.186;2023-05-07T09:51:12;19.00;99.90
52543;DHT22;38449;52.696;6.186;2023-05-07T09:53:42;19.10;99.90
52543;DHT22;38449;52.696;6.186;2023-05-07T09:56:09;19.30;99.90
52543;DHT22;38449;52.696;6.186;2023-05-07T09:58:37;19.30;99.90
52543;DHT22;38449;52.696;6.186;2023-05-07T10:01:07;19.50;99.90
52543;DHT22;38449;52.696;6.186;2023-05-07T10:03:34;19.50;99.90
52543;DHT22;38449;52.696;6.186;2023-05-07T10:06:01;19.60;99.90
52543;DHT22;38449;52.696;6.186;2023-05-07T10:08:30;19.90;99.90
52543;DHT22;38449;52.696;6.186;2023-05-07T10:10:58;20.10;99.90
52543;DHT22;38449;52.696;6.186;2023-05-07T10:13:25;20.10;99.90
52543;DHT22;38449;52.696;6.186;2023-05-07T10:15:52;20.10;99.90
52543;DHT22;38449;52.696;6.186;2023-05-07T10:18:20;20.10;99.90
52543;DHT22;38449;52.696;6.186;2023-05-07T10:20:51;20.10;99.90
52543;DHT22;38449;52.696;6.186;2023-05-07T10:23:23;20.10;99.90
52543;DHT22;38449;52.696;6.186;2023-05-07T10:25:49;20.20;99.90
52543;DHT22;38449;52.696;6.186;2023-05-07T10:28:17;20.20;99.90
52543;DHT22;38449;52.696;6.186;2023-05-07T10:31:18;20.20;99.90
52543;DHT22;38449;52.696;6.186;2023-05-07T10:33:47;20.40;99.90
52543;DHT22;38449;52.696;6.186;2023-05-07T10:36:14;20.30;99.90
52543;DHT22;38449;52.696;6.186;2023-05-07T10:38:41;20.20;99.90
52543;DHT22;38449;52.696;6.186;2023-05-07T10:41:07;20.30;99.90
52543;DHT22;38449;52.696;6.186;2023-05-07T10:43:39;20.30;99.90
52543;DHT22;38449;52.696;6.186;2023-05-07T10:46:20;20.50;99.90
52543;DHT22;38449;52.696;6.186;2023-05-07T10:51:32;20.30;99.90
52543;DHT22;38449;52.696;6.186;2023-05-07T10:56:38;20.60;99.90
52543;DHT22;38449;52.696;6.186;2023-05-07T11:02:04;21.10;99.90
52543;DHT22;38449;52.696;6.186;2023-05-07T11:04:32;21.20;99.90
52543;DHT22;38449;52.696;6.186;2023-05-07T11:15:08;21.50;99.90
52543;DHT22;38449;52.696;6.186;2023-05-07T11:17:59;21.40;99.90
52543;DHT22;38449;52.696;6.186;2023-05-07T11:20:56;21.50;99.90
52543;DHT22;38449;52.696;6.186;2023-05-07T11:26:06;21.30;99.90
52543;DHT22;38449;52.696;6.186;2023-05-07T11:28:38;21.00;99.90
52543;DHT22;38449;52.696;6.186;2023-05-07T11:31:04;21.00;99.90
52543;DHT22;38449;52.696;6.186;2023-05-07T11:33:31;21.20;99.90
52543;DHT22;38449;52.696;6.186;2023-05-07T11:35:58;21.10;99.90
52543;DHT22;38449;52.696;6.186;2023-05-07T11:38:25;21.10;99.90
52543;DHT22;38449;52.696;6.186;2023-05-07T11:40:53;21.10;99.90
52543;DHT22;38449;52.696;6.186;2023-05-07T11:43:19;21.40;99.90
52543;DHT22;38449;52.696;6.186;2023-05-07T11:45:46;21.50;99.90
52543;DHT22;38449;52.696;6.186;2023-05-07T11:48:13;21.70;99.90
52543;DHT22;38449;52.696;6.186;2023-05-07T11:50:53;21.70;99.90
52543;DHT22;38449;52.696;6.186;2023-05-07T11:53:20;21.50;99.90
52543;DHT22;38449;52.696;6.186;2023-05-07T11:55:46;21.40;99.90
52543;DHT22;38449;52.696;6.186;2023-05-07T11:58:20;21.40;99.90
52543;DHT22;38449;52.696;6.186;2023-05-07T12:00:51;21.40;99.90
52543;DHT22;38449;52.696;6.186;2023-05-07T12:03:17;21.40;99.90
52543;DHT22;38449;52.696;6.186;2023-05-07T12:05:45;21.30;99.90
52543;DHT22;38449;52.696;6.186;2023-05-07T12:08:15;21.40;99.90
52543;DHT22;38449;52.696;6.186;2023-05-07T12:10:46;21.40;99.90
52543;DHT22;38449;52.696;6.186;2023-05-07T12:13:18;21.40;99.90
52543;DHT22;38449;52.696;6.186;2023-05-07T12:15:44;21.40;99.90
52543;DHT22;38449;52.696;6.186;2023-05-07T12:18:11;21.50;99.90
52543;DHT22;38449;52.696;6.186;2023-05-07T12:20:38;21.40;99.90
52543;DHT22;38449;52.696;6.186;2023-05-07T12:23:05;21.30;99.90
52543;DHT22;38449;52.696;6.186;2023-05-07T12:25:34;21.30;99.90
52543;DHT22;38449;52.696;6.186;2023-05-07T12:28:04;21.10;99.90
52543;DHT22;38449;52.696;6.186;2023-05-07T12:30:39;21.10;99.90
52543;DHT22;38449;52.696;6.186;2023-05-07T12:33:06;21.10;99.90
52543;DHT22;38449;52.696;6.186;2023-05-07T12:35:40;21.00;99.90
52543;DHT22;38449;52.696;6.186;2023-05-07T12:38:15;20.90;99.90
52543;DHT22;38449;52.696;6.186;2023-05-07T12:41:05;20.90;99.90
52543;DHT22;38449;52.696;6.186;2023-05-07T12:43:30;20.70;99.90
52543;DHT22;38449;52.696;6.186;2023-05-07T12:45:58;20.70;99.90
52543;DHT22;38449;52.696;6.186;2023-05-07T12:48:25;20.80;99.90
52543;DHT22;38449;52.696;6.186;2023-05-07T12:50:54;20.80;99.90
52543;DHT22;38449;52.696;6.186;2023-05-07T12:53:23;20.70;99.90
52543;DHT22;38449;52.696;6.186;2023-05-07T12:55:56;20.60;99.90
52543;DHT22;38449;52.696;6.186;2023-05-07T12:58:29;20.50;99.90
52543;DHT22;38449;52.696;6.186;2023-05-07T13:00:57;20.60;99.90
52543;DHT22;38449;52.696;6.186;2023-05-07T13:03:30;20.50;99.90
52543;DHT22;38449;52.696;6.186;2023-05-07T13:05:59;20.60;99.90
52543;DHT22;38449;52.696;6.186;2023-05-07T13:08:33;20.50;99.90
52543;DHT22;38449;52.696;6.186;2023-05-07T13:11:01;20.50;99.90
52543;DHT22;38449;52.696;6.186;2023-05-07T13:13:35;20.30;99.90
52543;DHT22;38449;52.696;6.186;2023-05-07T13:16:02;20.30;99.90
52543;DHT22;38449;52.696;6.186;2023-05-07T13:18:32;20.40;99.90
52543;DHT22;38449;52.696;6.186;2023-05-07T13:20:59;20.40;99.90
52543;DHT22;38449;52.696;6.186;2023-05-07T13:23:27;20.40;99.90
52543;DHT22;38449;52.696;6.186;2023-05-07T13:25:53;20.50;99.90
52543;DHT22;38449;52.696;6.186;2023-05-07T13:28:24;20.60;99.90
52543;DHT22;38449;52.696;6.186;2023-05-07T13:30:50;20.70;99.90
52543;DHT22;38449;52.696;6.186;2023-05-07T13:33:18;20.70;99.90
52543;DHT22;38449;52.696;6.186;2023-05-07T13:35:44;20.80;99.90
52543;DHT22;38449;52.696;6.186;2023-05-07T13:38:11;21.00;99.90
52543;DHT22;38449;52.696;6.186;2023-05-07T13:40:37;20.80;99.90
52543;DHT22;38449;52.696;6.186;2023-05-07T13:43:05;20.90;99.90
52543;DHT22;38449;52.696;6.186;2023-05-07T13:45:32;21.00;99.90
52543;DHT22;38449;52.696;6.186;2023-05-07T13:47:58;21.30;99.90
52543;DHT22;38449;52.696;6.186;2023-05-07T13:50:24;21.40;99.90
52543;DHT22;38449;52.696;6.186;2023-05-07T13:52:52;21.30;99.90
52543;DHT22;38449;52.696;6.186;2023-05-07T13:55:20;21.30;99.90
52543;DHT22;38449;52.696;6.186;2023-05-07T13:57:47;21.60;99.90
52543;DHT22;38449;52.696;6.186;2023-05-07T14:00:14;21.50;99.90
52543;DHT22;38449;52.696;6.186;2023-05-07T14:02:40;21.30;99.90
52543;DHT22;38449;52.696;6.186;2023-05-07T14:05:07;21.30;99.90
52543;DHT22;38449;52.696;6.186;2023-05-07T14:07:35;21.10;99.90
52543;DHT22;38449;52.696;6.186;2023-05-07T14:10:02;21.10;99.90
52543;DHT22;38449;52.696;6.186;2023-05-07T14:12:28;21.20;99.90
52543;DHT22;38449;52.696;6.186;2023-05-07T14:14:54;21.20;99.90
52543;DHT22;38449;52.696;6.186;2023-05-07T14:17:21;21.20;99.90
52543;DHT22;38449;52.696;6.186;2023-05-07T14:19:49;21.30;99.90
52543;DHT22;38449;52.696;6.186;2023-05-07T14:22:15;21.10;99.90
52543;DHT22;38449;52.696;6.186;2023-05-07T14:24:41;21.00;99.90
52543;DHT22;38449;52.696;6.186;2023-05-07T14:27:07;21.00;99.90
52543;DHT22;38449;52.696;6.186;2023-05-07T14:29:34;20.90;99.90
52543;DHT22;38449;52.696;6.186;2023-05-07T14:32:02;20.80;99.90
52543;DHT22;38449;52.696;6.186;2023-05-07T14:34:31;20.90;99.90
52543;DHT22;38449;52.696;6.186;2023-05-07T14:36:59;20.90;99.90
52543;DHT22;38449;52.696;6.186;2023-05-07T14:39:25;20.90;99.90
52543;DHT22;38449;52.696;6.186;2023-05-07T14:41:52;20.90;99.90
52543;DHT22;38449;52.696;6.186;2023-05-07T14:44:20;20.90;99.90
52543;DHT22;38449;52.696;6.186;2023-05-07T14:46:47;20.90;99.90
52543;DHT22;38449;52.696;6.186;2023-05-07T14:49:15;20.80;99.90
52543;DHT22;38449;52.696;6.186;2023-05-07T14:51:46;20.70;99.90
52543;DHT22;38449;52.696;6.186;2023-05-07T14:54:13;20.60;99.90
52543;DHT22;38449;52.696;6.186;2023-05-07T14:56:40;20.70;99.90
52543;DHT22;38449;52.696;6.186;2023-05-07T14:59:06;20.60;99.90
52543;DHT22;38449;52.696;6.186;2023-05-07T15:01:34;20.60;99.90
52543;DHT22;38449;52.696;6.186;2023-05-07T15:04:02;20.60;99.90
52543;DHT22;38449;52.696;6.186;2023-05-07T15:06:29;20.40;99.90
52543;DHT22;38449;52.696;6.186;2023-05-07T15:08:55;20.40;99.90
52543;DHT22;38449;52.696;6.186;2023-05-07T15:11:21;20.40;99.90
52543;DHT22;38449;52.696;6.186;2023-05-07T15:13:48;20.30;99.90
52543;DHT22;38449;52.696;6.186;2023-05-07T15:16:14;20.30;99.90
52543;DHT22;38449;52.696;6.186;2023-05-07T15:18:41;20.30;99.90
52543;DHT22;38449;52.696;6.186;2023-05-07T15:21:07;20.30;99.90
52543;DHT22;38449;52.696;6.186;2023-05-07T15:23:33;20.10;99.90
52543;DHT22;38449;52.696;6.186;2023-05-07T15:25:59;20.10;99.90
52543;DHT22;38449;52.696;6.186;2023-05-07T15:28:27;20.00;99.90
52543;DHT22;38449;52.696;6.186;2023-05-07T15:30:54;20.00;99.90
52543;DHT22;38449;52.696;6.186;2023-05-07T15:33:21;19.80;99.90
52543;DHT22;38449;52.696;6.186;2023-05-07T15:35:47;19.80;99.90
52543;DHT22;38449;52.696;6.186;2023-05-07T15:38:13;19.90;99.90
52543;DHT22;38449;52.696;6.186;2023-05-07T15:40:40;19.90;99.90
52543;DHT22;38449;52.696;6.186;2023-05-07T15:43:09;20.00;99.90
52543;DHT22;38449;52.696;6.186;2023-05-07T15:45:40;20.00;99.90
52543;DHT22;38449;52.696;6.186;2023-05-07T15:48:07;20.10;99.90
52543;DHT22;38449;52.696;6.186;2023-05-07T15:50:33;20.00;99.90